sensor_id;sensor_type;location;lat;lon;timestamp;pressure;altitude;pressure_sealevel;temperature;humidity
59759;BME280;61150;62.516;17.862;2022-07-25T00:02:16;100443.99;;;15.40;74.35
59759;BME280;61150;62.516;17.862;2022-07-25T00:04:45;100444.09;;;15.40;74.28
59759;BME280;61150;62.516;17.862;2022-07-25T00:07:15;100442.19;;;15.54;73.97
59759;BME280;61150;62.516;17.862;2022-07-25T00:09:43;100445.86;;;15.39;74.11
59759;BME280;61150;62.516;17.862;2022-07-25T00:12:12;100448.64;;;15.55;73.88
59759;BME280;61150;62.516;17.862;2022-07-25T00:14:41;100444.37;;;15.45;73.82
59759;BME280;61150;62.516;17.862;2022-07-25T00:17:10;100435.06;;;15.47;73.93
59759;BME280;61150;62.516;17.862;2022-07-25T00:19:39;100430.07;;;15.61;73.71
59759;BME280;61150;62.516;17.862;2022-07-25T00:22:08;100431.33;;;15.60;73.56
59759;BME280;61150;62.516;17.862;2022-07-25T00:24:36;100424.37;;;15.63;73.39
59759;BME280;61150;62.516;17.862;2022-07-25T00:27:05;100420.35;;;15.71;73.24
59759;BME280;61150;62.516;17.862;2022-07-25T00:29:34;100419.26;;;15.67;72.91
59759;BME280;61150;62.516;17.862;2022-07-25T00:32:03;100427.93;;;15.57;72.88
59759;BME280;61150;62.516;17.862;2022-07-25T00:34:32;100421.93;;;15.59;72.70
59759;BME280;61150;62.516;17.862;2022-07-25T00:37:02;100421.84;;;15.48;72.62
59759;BME280;61150;62.516;17.862;2022-07-25T00:39:31;100417.51;;;15.64;72.56
59759;BME280;61150;62.516;17.862;2022-07-25T00:42:01;100413.90;;;15.60;72.62
59759;BME280;61150;62.516;17.862;2022-07-25T00:44:31;100416.42;;;15.40;72.57
59759;BME280;61150;62.516;17.862;2022-07-25T00:47:02;100418.15;;;15.52;72.69
59759;BME280;61150;62.516;17.862;2022-07-25T00:49:31;100420.82;;;15.34;72.90
59759;BME280;61150;62.516;17.862;2022-07-25T00:52:02;100414.98;;;15.17;72.99
59759;BME280;61150;62.516;17.862;2022-07-25T00:54:31;100416.33;;;15.29;73.20
59759;BME280;61150;62.516;17.862;2022-07-25T00:57:00;100405.15;;;15.19;73.16
59759;BME280;61150;62.516;17.862;2022-07-25T00:59:30;100410.15;;;15.26;73.35
59759;BME280;61150;62.516;17.862;2022-07-25T01:02:51;100400.19;;;15.20;73.97
59759;BME280;61150;62.516;17.862;2022-07-25T01:05:19;100395.91;;;15.22;73.92
59759;BME280;61150;62.516;17.862;2022-07-25T01:07:49;100395.18;;;15.27;74.40
59759;BME280;61150;62.516;17.862;2022-07-25T01:10:19;100393.70;;;15.21;74.53
59759;BME280;61150;62.516;17.862;2022-07-25T01:12:50;100389.98;;;15.22;74.32
59759;BME280;61150;62.516;17.862;2022-07-25T01:15:21;100388.35;;;15.25;74.53
59759;BME280;61150;62.516;17.862;2022-07-25T01:17:51;100385.16;;;15.28;74.35
59759;BME280;61150;62.516;17.862;2022-07-25T01:20:21;100380.93;;;15.31;74.61
59759;BME280;61150;62.516;17.862;2022-07-25T01:22:51;100382.16;;;15.19;74.42
59759;BME280;61150;62.516;17.862;2022-07-25T01:25:19;100373.62;;;15.41;74.47
59759;BME280;61150;62.516;17.862;2022-07-25T01:27:49;100375.48;;;15.27;74.53
59759;BME280;61150;62.516;17.862;2022-07-25T01:30:18;100371.60;;;15.29;74.42
59759;BME280;61150;62.516;17.862;2022-07-25T01:32:48;100368.55;;;15.34;74.44
59759;BME280;61150;62.516;17.862;2022-07-25T01:35:17;100371.20;;;15.36;74.55
59759;BME280;61150;62.516;17.862;2022-07-25T01:37:46;100360.07;;;15.36;74.46
59759;BME280;61150;62.516;17.862;2022-07-25T01:40:15;100356.65;;;15.29;74.39
59759;BME280;61150;62.516;17.862;2022-07-25T01:42:44;100356.19;;;15.31;74.41
59759;BME280;61150;62.516;17.862;2022-07-25T01:45:12;100355.99;;;15.32;74.18
59759;BME280;61150;62.516;17.862;2022-07-25T01:47:41;100355.17;;;15.33;73.98
59759;BME280;61150;62.516;17.862;2022-07-25T01:50:10;100352.32;;;15.25;74.22
59759;BME280;61150;62.516;17.862;2022-07-25T01:52:39;100348.50;;;15.07;74.33
59759;BME280;61150;62.516;17.862;2022-07-25T01:55:08;100347.00;;;15.14;74.22
59759;BME280;61150;62.516;17.862;2022-07-25T01:57:36;100351.14;;;15.11;74.26
59759;BME280;61150;62.516;17.862;2022-07-25T02:00:09;100343.78;;;15.11;74.49
59759;BME280;61150;62.516;17.862;2022-07-25T02:02:39;100339.64;;;15.16;74.51
59759;BME280;61150;62.516;17.862;2022-07-25T02:05:09;100333.59;;;15.00;74.22
59759;BME280;61150;62.516;17.862;2022-07-25T02:07:38;100342.62;;;15.04;74.06
59759;BME280;61150;62.516;17.862;2022-07-25T02:10:08;100339.04;;;14.88;73.72
59759;BME280;61150;62.516;17.862;2022-07-25T02:12:36;100337.82;;;14.85;73.48
59759;BME280;61150;62.516;17.862;2022-07-25T02:15:06;100332.25;;;14.85;73.66
59759;BME280;61150;62.516;17.862;2022-07-25T02:17:35;100327.46;;;14.91;73.85
59759;BME280;61150;62.516;17.862;2022-07-25T02:20:05;100328.08;;;14.80;74.40
59759;BME280;61150;62.516;17.862;2022-07-25T02:22:33;100325.93;;;14.69;74.44
59759;BME280;61150;62.516;17.862;2022-07-25T02:25:02;100325.96;;;14.71;74.85
59759;BME280;61150;62.516;17.862;2022-07-25T02:27:30;100319.94;;;14.69;74.46
59759;BME280;61150;62.516;17.862;2022-07-25T02:30:00;100317.83;;;14.76;74.80
59759;BME280;61150;62.516;17.862;2022-07-25T02:32:28;100305.08;;;14.93;75.00
59759;BME280;61150;62.516;17.862;2022-07-25T02:34:58;100305.22;;;15.10;74.57
59759;BME280;61150;62.516;17.862;2022-07-25T02:37:27;100299.78;;;14.95;74.20
59759;BME280;61150;62.516;17.862;2022-07-25T02:39:57;100298.19;;;14.99;74.41
59759;BME280;61150;62.516;17.862;2022-07-25T02:42:25;100298.85;;;14.97;74.81
59759;BME280;61150;62.516;17.862;2022-07-25T02:44:54;100293.27;;;15.01;75.16
59759;BME280;61150;62.516;17.862;2022-07-25T02:47:23;100287.76;;;15.07;75.26
59759;BME280;61150;62.516;17.862;2022-07-25T02:49:52;100285.78;;;15.14;75.18
59759;BME280;61150;62.516;17.862;2022-07-25T02:52:20;100279.31;;;15.19;74.44
59759;BME280;61150;62.516;17.862;2022-07-25T02:54:49;100277.98;;;15.17;74.18
59759;BME280;61150;62.516;17.862;2022-07-25T02:57:18;100276.48;;;15.30;73.71
59759;BME280;61150;62.516;17.862;2022-07-25T02:59:47;100272.20;;;15.34;73.66
59759;BME280;61150;62.516;17.862;2022-07-25T03:02:17;100271.48;;;15.30;73.99
59759;BME280;61150;62.516;17.862;2022-07-25T03:04:46;100268.84;;;15.27;73.75
59759;BME280;61150;62.516;17.862;2022-07-25T03:07:15;100261.26;;;15.48;74.35
59759;BME280;61150;62.516;17.862;2022-07-25T03:09:44;100267.51;;;15.59;74.50
59759;BME280;61150;62.516;17.862;2022-07-25T03:12:13;100270.34;;;15.58;75.09
59759;BME280;61150;62.516;17.862;2022-07-25T03:14:42;100266.63;;;15.73;75.38
59759;BME280;61150;62.516;17.862;2022-07-25T03:17:10;100264.91;;;15.78;75.73
59759;BME280;61150;62.516;17.862;2022-07-25T03:19:39;100265.66;;;15.72;75.60
59759;BME280;61150;62.516;17.862;2022-07-25T03:22:08;100262.89;;;15.89;75.85
59759;BME280;61150;62.516;17.862;2022-07-25T03:24:37;100262.66;;;16.07;75.98
59759;BME280;61150;62.516;17.862;2022-07-25T03:27:06;100265.23;;;16.18;76.20
59759;BME280;61150;62.516;17.862;2022-07-25T03:29:34;100266.08;;;16.15;76.05
59759;BME280;61150;62.516;17.862;2022-07-25T03:32:04;100261.33;;;16.07;76.03
59759;BME280;61150;62.516;17.862;2022-07-25T03:34:32;100267.21;;;15.99;76.21
59759;BME280;61150;62.516;17.862;2022-07-25T03:37:01;100275.94;;;15.84;76.38
59759;BME280;61150;62.516;17.862;2022-07-25T03:39:30;100277.23;;;15.98;76.61
59759;BME280;61150;62.516;17.862;2022-07-25T03:41:59;100277.26;;;15.88;76.79
59759;BME280;61150;62.516;17.862;2022-07-25T03:44:29;100282.72;;;15.89;76.75
59759;BME280;61150;62.516;17.862;2022-07-25T03:47:00;100283.86;;;15.94;77.17
59759;BME280;61150;62.516;17.862;2022-07-25T03:49:28;100270.60;;;15.81;77.03
59759;BME280;61150;62.516;17.862;2022-07-25T03:51:58;100272.95;;;15.81;76.87
59759;BME280;61150;62.516;17.862;2022-07-25T03:54:27;100267.15;;;15.96;76.46
59759;BME280;61150;62.516;17.862;2022-07-25T03:56:57;100259.72;;;15.88;76.05
59759;BME280;61150;62.516;17.862;2022-07-25T03:59:25;100247.39;;;15.97;76.11
59759;BME280;61150;62.516;17.862;2022-07-25T04:02:56;100239.40;;;15.56;76.64
59759;BME280;61150;62.516;17.862;2022-07-25T04:05:25;100236.97;;;15.59;76.73
59759;BME280;61150;62.516;17.862;2022-07-25T04:07:53;100238.62;;;15.66;76.28
59759;BME280;61150;62.516;17.862;2022-07-25T04:10:22;100240.81;;;15.76;76.17
59759;BME280;61150;62.516;17.862;2022-07-25T04:12:51;100232.45;;;15.82;76.41
59759;BME280;61150;62.516;17.862;2022-07-25T04:15:20;100227.38;;;15.67;76.22
59759;BME280;61150;62.516;17.862;2022-07-25T04:17:49;100220.57;;;16.02;76.06
59759;BME280;61150;62.516;17.862;2022-07-25T04:20:18;100213.34;;;16.00;75.61
59759;BME280;61150;62.516;17.862;2022-07-25T04:22:46;100213.30;;;16.14;75.15
59759;BME280;61150;62.516;17.862;2022-07-25T04:25:15;100225.77;;;16.11;75.11
59759;BME280;61150;62.516;17.862;2022-07-25T04:27:44;100226.78;;;16.09;75.28
59759;BME280;61150;62.516;17.862;2022-07-25T04:30:13;100224.36;;;16.08;75.13
59759;BME280;61150;62.516;17.862;2022-07-25T04:32:41;100222.52;;;16.04;75.23
59759;BME280;61150;62.516;17.862;2022-07-25T04:35:10;100221.29;;;16.09;75.18
59759;BME280;61150;62.516;17.862;2022-07-25T04:37:39;100222.48;;;16.08;75.53
59759;BME280;61150;62.516;17.862;2022-07-25T04:40:09;100216.90;;;16.05;75.63
59759;BME280;61150;62.516;17.862;2022-07-25T04:42:37;100216.38;;;16.09;75.48
59759;BME280;61150;62.516;17.862;2022-07-25T04:45:07;100216.04;;;16.09;75.88
59759;BME280;61150;62.516;17.862;2022-07-25T04:47:35;100218.71;;;16.23;75.96
59759;BME280;61150;62.516;17.862;2022-07-25T04:50:05;100217.32;;;16.26;76.00
59759;BME280;61150;62.516;17.862;2022-07-25T04:52:33;100211.09;;;16.59;75.41
59759;BME280;61150;62.516;17.862;2022-07-25T04:55:02;100214.61;;;16.62;75.26
59759;BME280;61150;62.516;17.862;2022-07-25T04:57:32;100212.66;;;16.51;75.47
59759;BME280;61150;62.516;17.862;2022-07-25T05:00:03;100203.81;;;16.67;75.59
59759;BME280;61150;62.516;17.862;2022-07-25T05:02:32;100204.06;;;17.04;75.08
59759;BME280;61150;62.516;17.862;2022-07-25T05:05:01;100205.06;;;17.16;73.71
59759;BME280;61150;62.516;17.862;2022-07-25T05:07:31;100203.20;;;17.22;73.24
59759;BME280;61150;62.516;17.862;2022-07-25T05:10:00;100195.60;;;17.72;73.89
59759;BME280;61150;62.516;17.862;2022-07-25T05:12:28;100187.49;;;18.74;71.83
59759;BME280;61150;62.516;17.862;2022-07-25T05:14:57;100177.79;;;19.58;66.73
59759;BME280;61150;62.516;17.862;2022-07-25T05:17:26;100170.29;;;19.79;65.38
59759;BME280;61150;62.516;17.862;2022-07-25T05:19:56;100168.92;;;20.92;61.39
59759;BME280;61150;62.516;17.862;2022-07-25T05:22:24;100174.78;;;21.41;60.69
59759;BME280;61150;62.516;17.862;2022-07-25T05:24:53;100169.26;;;21.76;58.65
59759;BME280;61150;62.516;17.862;2022-07-25T05:27:22;100178.42;;;21.11;58.44
59759;BME280;61150;62.516;17.862;2022-07-25T05:29:51;100179.76;;;21.07;59.99
59759;BME280;61150;62.516;17.862;2022-07-25T05:32:19;100181.72;;;20.97;59.92
59759;BME280;61150;62.516;17.862;2022-07-25T05:34:48;100182.79;;;20.73;59.57
59759;BME280;61150;62.516;17.862;2022-07-25T05:37:18;100180.78;;;20.41;61.51
59759;BME280;61150;62.516;17.862;2022-07-25T05:39:46;100182.08;;;20.46;61.85
59759;BME280;61150;62.516;17.862;2022-07-25T05:42:14;100172.70;;;20.24;62.71
59759;BME280;61150;62.516;17.862;2022-07-25T05:44:43;100172.42;;;20.23;62.77
59759;BME280;61150;62.516;17.862;2022-07-25T05:47:12;100173.46;;;20.05;62.59
59759;BME280;61150;62.516;17.862;2022-07-25T05:49:41;100169.13;;;19.91;62.89
59759;BME280;61150;62.516;17.862;2022-07-25T05:52:09;100174.94;;;19.45;63.26
59759;BME280;61150;62.516;17.862;2022-07-25T05:54:38;100165.55;;;19.22;64.06
59759;BME280;61150;62.516;17.862;2022-07-25T05:57:07;100165.47;;;18.70;65.79
59759;BME280;61150;62.516;17.862;2022-07-25T05:59:36;100161.29;;;18.78;66.69
59759;BME280;61150;62.516;17.862;2022-07-25T06:02:05;100164.53;;;18.87;67.67
59759;BME280;61150;62.516;17.862;2022-07-25T06:04:33;100169.28;;;18.81;67.04
59759;BME280;61150;62.516;17.862;2022-07-25T06:07:03;100168.11;;;19.07;67.13
59759;BME280;61150;62.516;17.862;2022-07-25T06:09:38;100169.96;;;18.77;66.98
59759;BME280;61150;62.516;17.862;2022-07-25T06:12:06;100162.35;;;19.20;66.99
59759;BME280;61150;62.516;17.862;2022-07-25T06:14:35;100153.61;;;19.76;66.02
59759;BME280;61150;62.516;17.862;2022-07-25T06:17:05;100159.96;;;20.69;63.77
59759;BME280;61150;62.516;17.862;2022-07-25T06:19:33;100155.08;;;20.47;61.42
59759;BME280;61150;62.516;17.862;2022-07-25T06:22:02;100159.27;;;19.92;62.38
59759;BME280;61150;62.516;17.862;2022-07-25T06:24:30;100157.94;;;19.68;63.73
59759;BME280;61150;62.516;17.862;2022-07-25T06:26:59;100155.47;;;19.64;63.44
59759;BME280;61150;62.516;17.862;2022-07-25T06:29:28;100150.09;;;19.84;62.90
59759;BME280;61150;62.516;17.862;2022-07-25T06:31:56;100154.52;;;19.71;63.58
59759;BME280;61150;62.516;17.862;2022-07-25T06:34:25;100155.01;;;19.76;63.06
59759;BME280;61150;62.516;17.862;2022-07-25T06:36:54;100154.75;;;19.69;62.93
59759;BME280;61150;62.516;17.862;2022-07-25T06:39:24;100147.37;;;19.52;64.15
59759;BME280;61150;62.516;17.862;2022-07-25T06:41:53;100146.07;;;19.59;64.06
59759;BME280;61150;62.516;17.862;2022-07-25T06:44:22;100141.98;;;19.59;64.11
59759;BME280;61150;62.516;17.862;2022-07-25T06:46:51;100143.62;;;19.47;63.97
59759;BME280;61150;62.516;17.862;2022-07-25T06:49:20;100141.59;;;19.71;64.79
59759;BME280;61150;62.516;17.862;2022-07-25T06:51:49;100135.13;;;19.94;63.19
59759;BME280;61150;62.516;17.862;2022-07-25T06:54:17;100139.13;;;20.25;62.30
59759;BME280;61150;62.516;17.862;2022-07-25T06:56:46;100138.98;;;20.26;61.76
59759;BME280;61150;62.516;17.862;2022-07-25T06:59:15;100132.11;;;20.22;62.12
59759;BME280;61150;62.516;17.862;2022-07-25T07:03:00;100140.31;;;19.38;62.52
59759;BME280;61150;62.516;17.862;2022-07-25T07:05:31;100152.07;;;19.31;62.84
59759;BME280;61150;62.516;17.862;2022-07-25T07:08:00;100149.70;;;18.99;63.11
59759;BME280;61150;62.516;17.862;2022-07-25T07:10:28;100153.60;;;18.51;64.63
59759;BME280;61150;62.516;17.862;2022-07-25T07:13:06;100161.22;;;18.13;66.69
59759;BME280;61150;62.516;17.862;2022-07-25T07:15:37;100160.08;;;17.75;68.24
59759;BME280;61150;62.516;17.862;2022-07-25T07:18:07;100155.96;;;17.77;69.28
59759;BME280;61150;62.516;17.862;2022-07-25T07:20:35;100155.23;;;17.79;69.81
59759;BME280;61150;62.516;17.862;2022-07-25T07:23:04;100150.87;;;17.66;70.71
59759;BME280;61150;62.516;17.862;2022-07-25T07:25:33;100140.57;;;17.70;70.80
59759;BME280;61150;62.516;17.862;2022-07-25T07:28:03;100137.81;;;17.66;71.04
59759;BME280;61150;62.516;17.862;2022-07-25T07:30:31;100128.30;;;17.65;71.16
59759;BME280;61150;62.516;17.862;2022-07-25T07:33:00;100126.52;;;17.46;71.34
59759;BME280;61150;62.516;17.862;2022-07-25T07:35:29;100131.28;;;17.41;71.94
59759;BME280;61150;62.516;17.862;2022-07-25T07:37:58;100124.39;;;17.32;72.17
59759;BME280;61150;62.516;17.862;2022-07-25T07:40:26;100125.68;;;17.74;72.44
59759;BME280;61150;62.516;17.862;2022-07-25T07:42:55;100136.06;;;17.85;71.37
59759;BME280;61150;62.516;17.862;2022-07-25T07:45:24;100128.09;;;17.82;71.65
59759;BME280;61150;62.516;17.862;2022-07-25T07:47:54;100126.34;;;17.74;72.53
59759;BME280;61150;62.516;17.862;2022-07-25T07:50:26;100120.17;;;17.89;72.88
59759;BME280;61150;62.516;17.862;2022-07-25T07:52:55;100116.08;;;18.03;72.29
59759;BME280;61150;62.516;17.862;2022-07-25T07:55:25;100113.87;;;18.29;70.76
59759;BME280;61150;62.516;17.862;2022-07-25T07:57:54;100118.17;;;18.32;71.89
59759;BME280;61150;62.516;17.862;2022-07-25T08:00:22;100126.36;;;18.72;71.53
59759;BME280;61150;62.516;17.862;2022-07-25T08:02:52;100123.45;;;19.10;70.40
59759;BME280;61150;62.516;17.862;2022-07-25T08:05:22;100128.54;;;19.02;67.93
59759;BME280;61150;62.516;17.862;2022-07-25T08:07:52;100122.79;;;18.70;69.20
59759;BME280;61150;62.516;17.862;2022-07-25T08:10:25;100112.19;;;18.64;69.07
59759;BME280;61150;62.516;17.862;2022-07-25T08:12:55;100105.91;;;18.70;68.85
59759;BME280;61150;62.516;17.862;2022-07-25T08:15:24;100099.29;;;18.88;69.49
59759;BME280;61150;62.516;17.862;2022-07-25T08:17:53;100096.40;;;19.03;69.10
59759;BME280;61150;62.516;17.862;2022-07-25T08:20:22;100093.86;;;19.24;69.43
59759;BME280;61150;62.516;17.862;2022-07-25T08:22:51;100096.83;;;19.67;68.18
59759;BME280;61150;62.516;17.862;2022-07-25T08:25:20;100094.05;;;19.85;67.13
59759;BME280;61150;62.516;17.862;2022-07-25T08:27:49;100091.49;;;20.37;66.96
59759;BME280;61150;62.516;17.862;2022-07-25T08:30:18;100094.46;;;20.40;64.15
59759;BME280;61150;62.516;17.862;2022-07-25T08:32:49;100101.14;;;19.70;65.24
59759;BME280;61150;62.516;17.862;2022-07-25T08:35:17;100105.72;;;19.47;66.71
59759;BME280;61150;62.516;17.862;2022-07-25T08:37:46;100104.22;;;19.33;67.68
59759;BME280;61150;62.516;17.862;2022-07-25T08:40:16;100104.36;;;19.50;66.73
59759;BME280;61150;62.516;17.862;2022-07-25T08:42:45;100098.35;;;19.57;65.22
59759;BME280;61150;62.516;17.862;2022-07-25T08:45:15;100091.00;;;19.80;65.20
59759;BME280;61150;62.516;17.862;2022-07-25T08:47:45;100090.15;;;19.68;66.03
59759;BME280;61150;62.516;17.862;2022-07-25T08:50:18;100089.95;;;19.56;67.14
59759;BME280;61150;62.516;17.862;2022-07-25T08:52:49;100085.48;;;19.42;67.68
59759;BME280;61150;62.516;17.862;2022-07-25T08:55:21;100092.54;;;19.48;66.50
59759;BME280;61150;62.516;17.862;2022-07-25T08:57:51;100095.81;;;19.38;67.02
59759;BME280;61150;62.516;17.862;2022-07-25T09:00:23;100095.58;;;19.58;66.32
59759;BME280;61150;62.516;17.862;2022-07-25T09:02:55;100091.10;;;19.35;66.46
59759;BME280;61150;62.516;17.862;2022-07-25T09:05:25;100088.82;;;19.31;66.93
59759;BME280;61150;62.516;17.862;2022-07-25T09:07:54;100083.46;;;19.07;67.41
59759;BME280;61150;62.516;17.862;2022-07-25T09:10:25;100082.26;;;19.22;68.18
59759;BME280;61150;62.516;17.862;2022-07-25T09:12:55;100075.67;;;19.28;67.02
59759;BME280;61150;62.516;17.862;2022-07-25T09:15:26;100073.81;;;19.53;66.16
59759;BME280;61150;62.516;17.862;2022-07-25T09:17:58;100076.91;;;19.52;66.05
59759;BME280;61150;62.516;17.862;2022-07-25T09:20:37;100069.85;;;19.66;66.56
59759;BME280;61150;62.516;17.862;2022-07-25T09:23:06;100066.80;;;19.42;66.98
59759;BME280;61150;62.516;17.862;2022-07-25T09:25:35;100064.13;;;19.45;66.56
59759;BME280;61150;62.516;17.862;2022-07-25T09:28:13;100060.17;;;19.35;66.96
59759;BME280;61150;62.516;17.862;2022-07-25T09:30:52;100060.11;;;19.30;67.21
59759;BME280;61150;62.516;17.862;2022-07-25T09:33:22;100063.84;;;19.29;67.70
59759;BME280;61150;62.516;17.862;2022-07-25T09:35:54;100061.72;;;19.22;68.01
59759;BME280;61150;62.516;17.862;2022-07-25T09:38:23;100065.67;;;19.52;68.45
59759;BME280;61150;62.516;17.862;2022-07-25T09:40:54;100065.80;;;19.59;66.02
59759;BME280;61150;62.516;17.862;2022-07-25T09:43:34;100073.14;;;19.82;66.74
59759;BME280;61150;62.516;17.862;2022-07-25T09:46:04;100073.37;;;19.88;67.31
59759;BME280;61150;62.516;17.862;2022-07-25T09:48:34;100075.12;;;19.73;66.44
59759;BME280;61150;62.516;17.862;2022-07-25T09:51:03;100081.05;;;19.72;65.24
59759;BME280;61150;62.516;17.862;2022-07-25T09:53:32;100078.70;;;19.73;66.37
59759;BME280;61150;62.516;17.862;2022-07-25T09:56:01;100075.18;;;19.63;65.93
59759;BME280;61150;62.516;17.862;2022-07-25T09:58:30;100073.91;;;19.50;66.25
59759;BME280;61150;62.516;17.862;2022-07-25T10:03:09;100067.88;;;19.37;66.51
59759;BME280;61150;62.516;17.862;2022-07-25T10:05:50;100063.94;;;19.30;66.71
59759;BME280;61150;62.516;17.862;2022-07-25T10:08:20;100060.10;;;19.21;67.76
59759;BME280;61150;62.516;17.862;2022-07-25T10:10:48;100047.59;;;19.19;67.75
59759;BME280;61150;62.516;17.862;2022-07-25T10:13:28;100047.56;;;19.58;66.82
59759;BME280;61150;62.516;17.862;2022-07-25T10:15:57;100059.91;;;19.51;66.88
59759;BME280;61150;62.516;17.862;2022-07-25T10:18:28;100053.96;;;19.05;67.59
59759;BME280;61150;62.516;17.862;2022-07-25T10:21:09;100046.92;;;19.10;68.81
59759;BME280;61150;62.516;17.862;2022-07-25T10:23:38;100040.03;;;19.23;68.48
59759;BME280;61150;62.516;17.862;2022-07-25T10:26:08;100037.36;;;19.30;68.33
59759;BME280;61150;62.516;17.862;2022-07-25T10:28:41;100041.48;;;19.25;68.74
59759;BME280;61150;62.516;17.862;2022-07-25T10:31:20;100032.03;;;19.12;68.88
59759;BME280;61150;62.516;17.862;2022-07-25T10:33:52;100034.12;;;19.38;67.41
59759;BME280;61150;62.516;17.862;2022-07-25T10:36:22;100033.47;;;19.40;67.47
59759;BME280;61150;62.516;17.862;2022-07-25T10:38:56;100034.84;;;19.06;67.95
59759;BME280;61150;62.516;17.862;2022-07-25T10:41:28;100038.54;;;19.01;67.93
59759;BME280;61150;62.516;17.862;2022-07-25T10:44:00;100038.22;;;18.89;68.91
59759;BME280;61150;62.516;17.862;2022-07-25T10:46:33;100044.11;;;18.85;69.03
59759;BME280;61150;62.516;17.862;2022-07-25T10:49:04;100041.52;;;18.66;69.75
59759;BME280;61150;62.516;17.862;2022-07-25T10:51:35;100042.80;;;18.69;70.26
59759;BME280;61150;62.516;17.862;2022-07-25T10:54:13;100040.09;;;19.05;68.66
59759;BME280;61150;62.516;17.862;2022-07-25T10:56:52;100042.57;;;19.14;69.53
59759;BME280;61150;62.516;17.862;2022-07-25T10:59:26;100038.14;;;19.78;68.85
59759;BME280;61150;62.516;17.862;2022-07-25T11:01:54;100036.28;;;20.07;65.83
59759;BME280;61150;62.516;17.862;2022-07-25T11:04:23;100033.31;;;19.93;65.22
59759;BME280;61150;62.516;17.862;2022-07-25T11:06:51;100034.52;;;19.61;66.18
59759;BME280;61150;62.516;17.862;2022-07-25T11:09:22;100035.37;;;19.24;67.30
59759;BME280;61150;62.516;17.862;2022-07-25T11:11:53;100028.60;;;18.96;68.16
59759;BME280;61150;62.516;17.862;2022-07-25T11:14:23;100026.78;;;18.70;69.32
59759;BME280;61150;62.516;17.862;2022-07-25T11:16:53;100022.30;;;18.59;70.30
59759;BME280;61150;62.516;17.862;2022-07-25T11:19:25;100017.00;;;18.59;69.73
59759;BME280;61150;62.516;17.862;2022-07-25T11:22:00;100012.86;;;18.78;69.02
59759;BME280;61150;62.516;17.862;2022-07-25T11:24:38;100004.58;;;18.82;68.87
59759;BME280;61150;62.516;17.862;2022-07-25T11:27:10;99996.18;;;18.77;69.93
59759;BME280;61150;62.516;17.862;2022-07-25T11:29:39;99995.05;;;18.96;69.21
59759;BME280;61150;62.516;17.862;2022-07-25T11:32:10;99997.46;;;19.19;69.71
59759;BME280;61150;62.516;17.862;2022-07-25T11:34:41;99995.63;;;19.81;68.82
59759;BME280;61150;62.516;17.862;2022-07-25T11:37:13;99986.35;;;19.72;68.91
59759;BME280;61150;62.516;17.862;2022-07-25T11:39:43;99980.76;;;20.09;68.24
59759;BME280;61150;62.516;17.862;2022-07-25T11:42:13;99977.59;;;20.16;66.18
59759;BME280;61150;62.516;17.862;2022-07-25T11:44:44;99974.90;;;20.22;65.67
59759;BME280;61150;62.516;17.862;2022-07-25T11:47:23;99973.40;;;20.06;65.52
59759;BME280;61150;62.516;17.862;2022-07-25T11:49:53;99974.90;;;19.87;65.75
59759;BME280;61150;62.516;17.862;2022-07-25T11:52:24;99970.17;;;20.15;66.55
59759;BME280;61150;62.516;17.862;2022-07-25T11:54:57;99970.42;;;20.06;66.02
59759;BME280;61150;62.516;17.862;2022-07-25T11:57:27;99966.56;;;19.77;67.78
59759;BME280;61150;62.516;17.862;2022-07-25T11:59:57;99959.50;;;19.51;67.19
59759;BME280;61150;62.516;17.862;2022-07-25T12:02:28;99958.22;;;19.76;68.09
59759;BME280;61150;62.516;17.862;2022-07-25T12:04:59;99947.96;;;19.85;66.97
59759;BME280;61150;62.516;17.862;2022-07-25T12:07:37;99946.88;;;20.23;66.51
59759;BME280;61150;62.516;17.862;2022-07-25T12:10:10;99943.00;;;20.42;65.36
59759;BME280;61150;62.516;17.862;2022-07-25T12:12:44;99941.04;;;20.68;65.21
59759;BME280;61150;62.516;17.862;2022-07-25T12:15:14;99932.57;;;20.57;64.62
59759;BME280;61150;62.516;17.862;2022-07-25T12:17:44;99930.64;;;20.47;64.72
59759;BME280;61150;62.516;17.862;2022-07-25T12:20:14;99930.34;;;20.11;65.52
59759;BME280;61150;62.516;17.862;2022-07-25T12:22:44;99929.35;;;20.05;66.22
59759;BME280;61150;62.516;17.862;2022-07-25T12:25:14;99924.55;;;20.20;64.98
59759;BME280;61150;62.516;17.862;2022-07-25T12:27:42;99920.05;;;19.98;65.49
59759;BME280;61150;62.516;17.862;2022-07-25T12:30:12;99914.64;;;20.07;64.88
59759;BME280;61150;62.516;17.862;2022-07-25T12:32:41;99917.56;;;20.08;65.49
59759;BME280;61150;62.516;17.862;2022-07-25T12:35:11;99911.15;;;19.73;66.94
59759;BME280;61150;62.516;17.862;2022-07-25T12:37:40;99900.56;;;19.56;66.86
59759;BME280;61150;62.516;17.862;2022-07-25T12:40:09;99900.47;;;19.35;67.88
59759;BME280;61150;62.516;17.862;2022-07-25T12:42:39;99898.81;;;19.11;68.78
59759;BME280;61150;62.516;17.862;2022-07-25T12:45:08;99899.79;;;18.92;69.31
59759;BME280;61150;62.516;17.862;2022-07-25T12:47:37;99901.67;;;18.90;69.56
59759;BME280;61150;62.516;17.862;2022-07-25T12:50:06;99892.54;;;19.11;69.40
59759;BME280;61150;62.516;17.862;2022-07-25T12:52:36;99895.21;;;19.02;68.84
59759;BME280;61150;62.516;17.862;2022-07-25T12:55:05;99893.47;;;19.16;69.11
59759;BME280;61150;62.516;17.862;2022-07-25T12:57:34;99890.31;;;19.09;69.06
59759;BME280;61150;62.516;17.862;2022-07-25T13:02:52;99895.74;;;19.65;66.72